Time;durP1;ratioP1;P1;durP2;ratioP2;P2;SDS_P1;SDS_P2;PMS_P1;PMS_P2;Temp;Humidity;BMP_temperature;BMP_pressure;BME280_temperature;BME280_humidity;BME280_pressure;Samples;Min_cycle;Max_cycle;Signal;HPM_P1;HPM_P2
2022/10/02 00:01:27;;;;;;;5.13;2.17;;;13.00;40.60;;;;;;5044920;28;20481;-59
2022/10/02 00:03:54;;;;;;;5.57;1.60;;;13.00;40.50;;;;;;5045398;28;20457;-59
2022/10/02 00:06:25;;;;;;;4.27;1.13;;;13.00;40.50;;;;;;5048592;28;20465;-59
2022/10/02 00:08:58;;;;;;;8.37;1.90;;;13.00;40.50;;;;;;5044225;28;20492;-59
2022/10/02 00:11:34;;;;;;;3.73;1.17;;;13.00;41.20;;;;;;5040975;28;20469;-60
2022/10/02 00:14:05;;;;;;;5.70;1.67;;;13.00;40.40;;;;;;5018939;28;20536;-59
2022/10/02 00:16:35;;;;;;;4.37;1.37;;;13.00;40.70;;;;;;5043156;28;20461;-59
2022/10/02 00:19:03;;;;;;;5.47;1.77;;;13.00;40.40;;;;;;5044805;28;20485;-59
2022/10/02 00:21:40;;;;;;;5.00;1.87;;;13.10;40.40;;;;;;5046941;28;20942;-58
2022/10/02 00:24:14;;;;;;;4.70;1.67;;;13.00;40.50;;;;;;5039218;28;20464;-59
2022/10/02 00:26:49;;;;;;;5.90;1.80;;;13.00;40.60;;;;;;5042818;28;20462;-59
2022/10/02 00:29:33;;;;;;;5.57;1.60;;;13.00;40.60;;;;;;5046751;28;20473;-60
2022/10/02 00:32:16;;;;;;;5.77;2.00;;;13.00;40.70;;;;;;5039315;28;20915;-59
2022/10/02 00:34:52;;;;;;;6.47;1.50;;;13.00;40.80;;;;;;5055206;28;20466;-59
2022/10/02 00:37:30;;;;;;;7.43;1.70;;;13.00;40.90;;;;;;5042687;28;20481;-60
2022/10/02 00:40:14;;;;;;;7.33;1.67;;;13.00;41.00;;;;;;5042829;28;20519;-59
2022/10/02 00:43:05;;;;;;;7.07;1.80;;;13.00;41.20;;;;;;5042360;28;20453;-59
2022/10/02 00:45:50;;;;;;;6.10;1.50;;;13.00;41.30;;;;;;5052091;28;20457;-58
2022/10/02 00:48:34;;;;;;;4.57;1.60;;;13.00;41.40;;;;;;5051267;28;20469;-59
2022/10/02 00:51:14;;;;;;;5.37;1.73;;;12.90;41.70;;;;;;5040090;28;20981;-59
2022/10/02 00:53:56;;;;;;;5.47;1.83;;;12.90;41.70;;;;;;5045390;28;20462;-59
2022/10/02 00:56:30;;;;;;;4.90;2.03;;;12.90;42.10;;;;;;5039092;28;20463;-59
2022/10/02 00:59:18;;;;;;;5.20;2.70;;;12.90;42.10;;;;;;5041715;28;20473;-59
2022/10/02 01:01:51;;;;;;;6.77;1.80;;;13.00;42.50;;;;;;5041776;28;20473;-59
2022/10/02 01:04:23;;;;;;;6.00;2.17;;;13.00;42.50;;;;;;5043642;28;20462;-59
2022/10/02 01:06:50;;;;;;;5.17;1.90;;;13.00;42.90;;;;;;5040385;28;20470;-59
2022/10/02 01:09:18;;;;;;;6.23;2.37;;;13.00;43.00;;;;;;5042678;28;20478;-59
2022/10/02 01:11:46;;;;;;;9.47;2.70;;;13.00;43.10;;;;;;5039007;28;20863;-59
2022/10/02 01:14:13;;;;;;;6.50;2.10;;;13.00;43.30;;;;;;5042982;28;20462;-59
2022/10/02 01:16:41;;;;;;;5.07;2.20;;;13.00;43.10;;;;;;5047379;28;20458;-59
2022/10/02 01:19:18;;;;;;;5.67;2.33;;;13.00;43.10;;;;;;5045182;28;20486;-59
2022/10/02 01:21:50;;;;;;;5.90;2.40;;;13.00;43.30;;;;;;5036891;28;20829;-59
2022/10/02 01:24:22;;;;;;;6.27;2.30;;;12.90;43.30;;;;;;5040885;28;20958;-59
2022/10/02 01:26:50;;;;;;;7.23;2.50;;;13.00;43.20;;;;;;5043983;28;20489;-59
2022/10/02 01:29:17;;;;;;;5.27;2.00;;;13.00;43.40;;;;;;5045326;28;20901;-59
2022/10/02 01:31:44;;;;;;;4.70;1.80;;;13.00;43.20;;;;;;5039975;28;20482;-59
2022/10/02 01:34:11;;;;;;;5.63;1.70;;;13.00;43.40;;;;;;5044377;28;20470;-59
2022/10/02 01:36:37;;;;;;;7.63;1.47;;;13.00;43.40;;;;;;5045438;28;20488;-59
2022/10/02 01:39:05;;;;;;;5.93;1.70;;;13.00;43.40;;;;;;5041463;28;20493;-60
2022/10/02 01:41:34;;;;;;;5.20;1.60;;;12.90;43.50;;;;;;5043289;28;20455;-60
2022/10/02 01:44:03;;;;;;;9.07;2.00;;;13.00;43.50;;;;;;5040311;28;20481;-59
2022/10/02 01:46:39;;;;;;;6.77;2.37;;;13.00;43.60;;;;;;5039113;28;20458;-59
2022/10/02 01:49:17;;;;;;;6.90;1.50;;;13.00;43.60;;;;;;5042973;28;20863;-60
2022/10/02 01:52:00;;;;;;;5.23;1.47;;;13.00;43.70;;;;;;5039831;28;20958;-59
2022/10/02 01:54:44;;;;;;;5.30;1.47;;;13.00;43.80;;;;;;5042919;28;20496;-59
2022/10/02 01:57:24;;;;;;;5.50;1.30;;;13.00;43.90;;;;;;5044481;28;20485;-59
2022/10/02 02:00:06;;;;;;;4.67;1.40;;;13.00;43.90;;;;;;5039646;28;20730;-59
2022/10/02 02:02:42;;;;;;;5.93;1.60;;;13.00;44.00;;;;;;5038351;28;20478;-59
2022/10/02 02:05:12;;;;;;;8.07;1.77;;;13.00;43.80;;;;;;5037911;28;21183;-59
2022/10/02 02:07:48;;;;;;;6.10;1.97;;;13.00;43.80;;;;;;5047393;28;20466;-60
2022/10/02 02:10:23;;;;;;;6.13;1.57;;;13.00;44.00;;;;;;5041321;28;20489;-59
2022/10/02 02:12:59;;;;;;;5.10;1.63;;;13.00;43.90;;;;;;5041053;28;20458;-59
2022/10/02 02:15:34;;;;;;;6.90;2.00;;;13.00;43.80;;;;;;5042680;28;20461;-59
2022/10/02 02:18:06;;;;;;;6.00;1.90;;;13.00;43.70;;;;;;5043989;28;20473;-60
2022/10/02 02:20:38;;;;;;;8.17;1.57;;;13.10;43.80;;;;;;5039954;28;20478;-59
2022/10/02 02:23:09;;;;;;;6.27;1.70;;;13.10;43.70;;;;;;5044098;28;20458;-60
2022/10/02 02:25:40;;;;;;;4.40;1.37;;;13.10;43.70;;;;;;5042725;28;20469;-59
2022/10/02 02:28:11;;;;;;;5.33;1.43;;;13.10;43.70;;;;;;5047034;28;20453;-60
2022/10/02 02:30:42;;;;;;;6.70;1.67;;;13.10;43.70;;;;;;5041779;28;20535;-59
2022/10/02 02:33:14;;;;;;;6.10;1.87;;;13.10;43.70;;;;;;5042170;28;20457;-59
2022/10/02 02:35:44;;;;;;;6.20;1.57;;;13.10;43.70;;;;;;5045742;28;20860;-59
2022/10/02 02:38:16;;;;;;;4.97;1.40;;;13.10;43.80;;;;;;5041374;28;20990;-59
2022/10/02 02:40:46;;;;;;;6.00;1.47;;;13.10;43.80;;;;;;5043659;28;20553;-58
2022/10/02 02:43:16;;;;;;;5.20;1.77;;;13.10;43.70;;;;;;5048213;28;20457;-59
2022/10/02 02:45:49;;;;;;;7.43;1.50;;;13.10;43.70;;;;;;5042019;28;20458;-60
2022/10/02 02:48:22;;;;;;;7.77;1.63;;;13.10;43.80;;;;;;5042928;28;20954;-59
2022/10/02 02:50:53;;;;;;;6.13;1.80;;;13.10;43.70;;;;;;5042450;28;20546;-59
2022/10/02 02:53:25;;;;;;;8.97;2.03;;;13.10;43.70;;;;;;5039677;28;20466;-59
2022/10/02 02:55:55;;;;;;;6.97;1.80;;;13.10;43.60;;;;;;5031900;28;20571;-59
2022/10/02 02:58:27;;;;;;;7.57;1.43;;;13.20;43.40;;;;;;5046653;28;20505;-59
2022/10/02 03:00:56;;;;;;;6.30;1.60;;;13.20;43.50;;;;;;5038003;28;20487;-60
2022/10/02 03:03:22;;;;;;;6.30;1.40;;;13.20;43.50;;;;;;5044631;28;20471;-59
2022/10/02 03:05:57;;;;;;;6.50;1.50;;;13.20;43.40;;;;;;5040526;28;20471;-59
2022/10/02 03:08:27;;;;;;;4.53;1.50;;;13.20;43.30;;;;;;5043932;28;20477;-59
2022/10/02 03:11:05;;;;;;;11.83;2.60;;;13.20;43.50;;;;;;5041796;28;20473;-59
2022/10/02 03:13:44;;;;;;;9.47;1.60;;;13.20;43.50;;;;;;5046160;28;20465;-59
2022/10/02 03:16:22;;;;;;;5.80;1.43;;;13.20;43.50;;;;;;5036810;28;20553;-59
2022/10/02 03:19:02;;;;;;;6.43;2.07;;;13.30;43.70;;;;;;5050346;28;20493;-58
2022/10/02 03:21:35;;;;;;;10.10;1.80;;;13.30;43.70;;;;;;5048315;28;20468;-59
2022/10/02 03:24:09;;;;;;;10.70;2.67;;;13.30;43.70;;;;;;5048715;28;20464;-59
2022/10/02 03:26:40;;;;;;;6.13;1.97;;;13.30;43.60;;;;;;5045418;28;20460;-59
2022/10/02 03:29:13;;;;;;;8.17;1.63;;;13.30;43.60;;;;;;5043916;28;20498;-59
2022/10/02 03:31:43;;;;;;;5.80;1.60;;;13.30;43.60;;;;;;5041128;28;20477;-59
2022/10/02 03:34:09;;;;;;;5.87;1.63;;;13.30;43.60;;;;;;5039305;28;20471;-60
2022/10/02 03:36:37;;;;;;;6.17;1.67;;;13.30;43.60;;;;;;5043264;28;20465;-59
2022/10/02 03:39:06;;;;;;;4.70;1.27;;;13.30;43.60;;;;;;5051343;28;20481;-59
2022/10/02 03:41:33;;;;;;;5.43;1.80;;;13.30;43.60;;;;;;5046495;28;20505;-60
2022/10/02 03:44:00;;;;;;;6.87;1.90;;;13.30;43.70;;;;;;5039403;28;20463;-60
2022/10/02 03:46:27;;;;;;;6.53;1.57;;;13.30;43.70;;;;;;5050758;28;20986;-59
2022/10/02 03:48:55;;;;;;;8.47;2.13;;;13.30;43.60;;;;;;5044775;28;20986;-59
2022/10/02 03:51:22;;;;;;;6.40;1.47;;;13.30;43.70;;;;;;5047958;28;20511;-59
2022/10/02 03:53:49;;;;;;;6.87;1.70;;;13.30;43.70;;;;;;5049556;28;20458;-58
2022/10/02 03:56:24;;;;;;;6.73;2.40;;;13.30;43.70;;;;;;5054047;28;20466;-59
2022/10/02 03:58:53;;;;;;;5.27;1.50;;;13.30;43.70;;;;;;5044194;28;20481;-59
2022/10/02 04:01:26;;;;;;;4.70;1.43;;;13.40;43.60;;;;;;5042816;28;20634;-59
2022/10/02 04:03:59;;;;;;;5.20;1.67;;;13.40;43.50;;;;;;5042352;28;20461;-58
2022/10/02 04:06:32;;;;;;;7.40;2.27;;;13.40;43.60;;;;;;5039123;28;20455;-59
2022/10/02 04:09:04;;;;;;;6.57;1.90;;;13.40;43.50;;;;;;5042190;28;20848;-59
2022/10/02 04:11:35;;;;;;;5.10;1.50;;;13.40;43.60;;;;;;5044953;28;20459;-59
2022/10/02 04:14:07;;;;;;;5.20;2.20;;;13.40;43.50;;;;;;5048624;28;20470;-60
2022/10/02 04:16:40;;;;;;;4.40;1.50;;;13.40;43.50;;;;;;5047429;28;20484;-59
2022/10/02 04:19:14;;;;;;;7.43;2.07;;;13.40;43.40;;;;;;5041513;28;20478;-59
2022/10/02 04:21:43;;;;;;;7.40;2.00;;;13.40;43.50;;;;;;5041328;28;20459;-59
2022/10/02 04:24:18;;;;;;;6.60;2.07;;;13.40;43.30;;;;;;5045658;28;20465;-58
2022/10/02 04:26:52;;;;;;;6.83;1.90;;;13.40;44.00;;;;;;5039628;28;20465;-59
2022/10/02 04:29:23;;;;;;;5.97;1.90;;;13.40;43.40;;;;;;5045193;28;20488;-59
2022/10/02 04:31:53;;;;;;;7.67;1.70;;;13.40;43.20;;;;;;5044940;28;20576;-58
2022/10/02 04:34:21;;;;;;;5.13;2.13;;;13.40;43.30;;;;;;5045654;28;20459;-58
2022/10/02 04:37:04;;;;;;;5.90;2.30;;;13.40;43.50;;;;;;5044861;28;20472;-60
2022/10/02 04:39:57;;;;;;;6.17;1.77;;;13.40;43.60;;;;;;5043190;28;20489;-60
2022/10/02 04:42:40;;;;;;;6.50;2.10;;;13.40;43.50;;;;;;5038570;28;20470;-60
2022/10/02 04:45:33;;;;;;;6.60;1.83;;;13.40;43.30;;;;;;5036086;28;20488;-60
2022/10/02 04:48:23;;;;;;;11.80;3.90;;;13.40;43.40;;;;;;5042954;28;21072;-60
2022/10/02 04:50:59;;;;;;;5.20;1.67;;;13.40;43.40;;;;;;5040045;28;20962;-61
2022/10/02 04:53:43;;;;;;;6.53;2.17;;;13.40;43.30;;;;;;5038373;28;20466;-60
2022/10/02 04:56:32;;;;;;;4.43;1.27;;;13.40;43.30;;;;;;5046662;28;20860;-60
2022/10/02 04:59:24;;;;;;;6.80;2.30;;;13.30;43.40;;;;;;5040627;28;20569;-61
2022/10/02 05:02:01;;;;;;;6.00;1.73;;;13.30;43.30;;;;;;5044437;28;20973;-61
2022/10/02 05:04:44;;;;;;;7.73;1.87;;;13.30;43.10;;;;;;5041361;28;20458;-60
2022/10/02 05:07:31;;;;;;;5.07;2.63;;;13.30;43.30;;;;;;5041257;28;20458;-60
2022/10/02 05:10:05;;;;;;;9.13;1.90;;;13.30;43.20;;;;;;5040867;28;20489;-61
2022/10/02 05:12:56;;;;;;;12.80;2.83;;;13.30;43.00;;;;;;5041882;28;20466;-60
2022/10/02 05:15:52;;;;;;;6.40;2.33;;;13.30;43.20;;;;;;5046073;28;20493;-60
2022/10/02 05:18:37;;;;;;;6.60;2.40;;;13.30;43.10;;;;;;5046543;28;20467;-61
2022/10/02 05:21:22;;;;;;;6.60;2.07;;;13.30;43.00;;;;;;5045947;28;20461;-61
2022/10/02 05:24:09;;;;;;;6.80;2.73;;;13.30;43.10;;;;;;5043975;28;20465;-61
2022/10/02 05:26:57;;;;;;;5.50;2.37;;;13.30;43.10;;;;;;5044576;28;20949;-61
2022/10/02 05:29:40;;;;;;;9.43;2.20;;;13.30;43.00;;;;;;5044126;28;21194;-61
2022/10/02 05:32:24;;;;;;;4.53;2.03;;;13.30;42.80;;;;;;5043247;28;20478;-60
2022/10/02 05:35:06;;;;;;;7.00;2.10;;;13.30;42.90;;;;;;5043108;28;20462;-60
2022/10/02 05:37:48;;;;;;;7.43;2.17;;;13.30;43.00;;;;;;5039964;28;20462;-60
2022/10/02 05:40:24;;;;;;;7.40;2.70;;;13.40;42.90;;;;;;5039669;28;20478;-60
2022/10/02 05:42:57;;;;;;;7.67;2.73;;;13.30;42.70;;;;;;5045289;28;20462;-60
2022/10/02 05:45:29;;;;;;;7.30;2.20;;;13.40;42.60;;;;;;5036548;28;21151;-60
2022/10/02 05:48:06;;;;;;;6.90;2.57;;;13.40;42.70;;;;;;5039836;28;20458;-60
2022/10/02 05:50:36;;;;;;;7.40;2.87;;;13.40;42.70;;;;;;5036504;28;20918;-61
2022/10/02 05:53:08;;;;;;;10.17;2.40;;;13.40;42.60;;;;;;5041559;28;20485;-61
2022/10/02 05:55:43;;;;;;;10.43;3.50;;;13.40;42.50;;;;;;5050047;28;20458;-60
2022/10/02 05:58:16;;;;;;;9.90;3.97;;;13.40;42.50;;;;;;5041510;28;20463;-60
2022/10/02 06:00:47;;;;;;;7.40;2.30;;;13.40;42.50;;;;;;5040633;28;20480;-60
2022/10/02 06:03:19;;;;;;;9.70;2.23;;;13.40;42.40;;;;;;5046146;28;20469;-61
2022/10/02 06:05:54;;;;;;;5.80;2.40;;;13.40;42.30;;;;;;5041631;28;20456;-60
2022/10/02 06:08:25;;;;;;;5.90;1.67;;;13.40;42.30;;;;;;5042256;28;20515;-60
2022/10/02 06:10:59;;;;;;;6.07;2.30;;;13.40;42.20;;;;;;5043713;28;20464;-61
2022/10/02 06:13:34;;;;;;;5.30;2.30;;;13.40;42.30;;;;;;5038383;28;20466;-60
2022/10/02 06:16:09;;;;;;;8.80;2.87;;;13.40;42.30;;;;;;5040000;28;20494;-60
2022/10/02 06:18:38;;;;;;;8.77;3.40;;;13.40;42.20;;;;;;5042314;28;20485;-60
2022/10/02 06:21:09;;;;;;;8.10;2.20;;;13.50;42.20;;;;;;5040122;28;20466;-60
2022/10/02 06:23:39;;;;;;;6.77;2.53;;;13.50;42.30;;;;;;5040029;28;20462;-61
2022/10/02 06:26:12;;;;;;;6.10;2.40;;;13.50;42.10;;;;;;5042265;28;20458;-61
2022/10/02 06:28:42;;;;;;;5.47;2.50;;;13.50;42.20;;;;;;5049952;28;20504;-61
2022/10/02 06:31:14;;;;;;;6.67;2.37;;;13.60;42.00;;;;;;5041152;28;20474;-60
2022/10/02 06:33:41;;;;;;;8.47;2.37;;;13.60;42.10;;;;;;5045385;28;20461;-61
2022/10/02 06:36:42;;;;;;;7.33;2.70;;;13.60;42.00;;;;;;5044184;28;20462;-60
2022/10/02 06:39:26;;;;;;;8.90;2.90;;;13.70;42.30;;;;;;5037143;28;20984;-61
2022/10/02 06:42:03;;;;;;;6.80;2.57;;;13.70;42.30;;;;;;5040990;28;20843;-60
2022/10/02 06:44:36;;;;;;;6.33;2.33;;;13.80;42.30;;;;;;5037814;28;20469;-61
2022/10/02 06:47:22;;;;;;;8.40;2.90;;;13.80;42.10;;;;;;5043814;28;20467;-61
2022/10/02 06:50:05;;;;;;;7.30;2.80;;;13.90;42.40;;;;;;5036824;28;20488;-60
2022/10/02 06:52:43;;;;;;;6.40;2.57;;;13.90;42.30;;;;;;5044707;28;20454;-60
2022/10/02 06:55:28;;;;;;;5.40;3.00;;;13.90;42.40;;;;;;5043757;28;20469;-61
2022/10/02 06:58:14;;;;;;;6.83;2.80;;;14.00;42.40;;;;;;5046675;28;20915;-61
2022/10/02 07:00:48;;;;;;;7.23;3.10;;;14.00;42.40;;;;;;5043690;28;21034;-60
2022/10/02 07:03:40;;;;;;;7.60;2.77;;;14.10;42.40;;;;;;5045475;28;20465;-61
2022/10/02 07:06:14;;;;;;;8.80;2.80;;;14.10;42.40;;;;;;5048492;28;20461;-60
2022/10/02 07:09:01;;;;;;;7.50;3.10;;;14.20;42.10;;;;;;5043285;28;20482;-61
2022/10/02 07:11:38;;;;;;;6.00;3.03;;;14.30;42.30;;;;;;5049870;28;20458;-61
2022/10/02 07:14:24;;;;;;;6.87;2.90;;;14.40;41.90;;;;;;5042472;28;21088;-60
2022/10/02 07:17:21;;;;;;;11.00;2.70;;;14.40;42.00;;;;;;5047483;28;20480;-61
2022/10/02 07:20:02;;;;;;;12.00;4.13;;;14.50;41.80;;;;;;5042257;28;20479;-60
2022/10/02 07:22:43;;;;;;;12.30;3.37;;;14.60;41.40;;;;;;5047471;28;20547;-61
2022/10/02 07:25:42;;;;;;;9.87;3.83;;;14.70;41.40;;;;;;5048508;28;20456;-61
2022/10/02 07:28:19;;;;;;;5.67;2.73;;;14.80;41.30;;;;;;5045301;28;20465;-60
2022/10/02 07:30:58;;;;;;;7.40;2.80;;;14.90;41.00;;;;;;5042797;28;20466;-60
2022/10/02 07:33:39;;;;;;;8.93;3.37;;;14.90;40.70;;;;;;5049314;28;20460;-61
2022/10/02 07:36:11;;;;;;;7.70;2.77;;;15.10;40.60;;;;;;5045187;28;20450;-61
2022/10/02 07:39:01;;;;;;;8.17;4.03;;;15.30;40.50;;;;;;5048097;28;20478;-60
2022/10/02 07:41:50;;;;;;;7.17;3.37;;;15.80;41.40;;;;;;5043825;28;20469;-61
2022/10/02 07:44:34;;;;;;;8.80;2.60;;;17.50;38.40;;;;;;5046811;28;20540;-62
2022/10/02 07:47:11;;;;;;;7.50;2.13;;;19.70;32.80;;;;;;5044747;28;20454;-61
2022/10/02 07:49:46;;;;;;;9.80;3.63;;;20.90;27.90;;;;;;5044128;28;20861;-62
2022/10/02 07:52:21;;;;;;;12.30;5.43;;;21.90;25.10;;;;;;5047144;28;20468;-61
2022/10/02 07:55:00;;;;;;;11.10;5.27;;;23.10;21.00;;;;;;5042269;28;20587;-62
2022/10/02 07:57:34;;;;;;;8.40;4.30;;;24.00;16.80;;;;;;5043001;28;20457;-61
2022/10/02 08:00:06;;;;;;;7.60;3.40;;;24.40;15.20;;;;;;5043864;28;20488;-62
2022/10/02 08:02:40;;;;;;;7.50;3.03;;;24.20;15.10;;;;;;5042358;28;20862;-62
2022/10/02 08:05:17;;;;;;;7.93;3.93;;;23.60;15.70;;;;;;5046958;28;20458;-62
2022/10/02 08:07:49;;;;;;;11.97;5.00;;;23.00;15.70;;;;;;5038946;28;20466;-59
2022/10/02 08:10:21;;;;;;;8.57;3.07;;;22.80;16.60;;;;;;5040842;28;20569;-62
2022/10/02 08:12:54;;;;;;;7.10;2.30;;;23.50;16.00;;;;;;5042107;28;20539;-62
2022/10/02 08:15:23;;;;;;;6.33;2.53;;;23.90;14.80;;;;;;5040534;28;20461;-60
2022/10/02 08:17:56;;;;;;;4.50;1.63;;;24.00;14.80;;;;;;5039331;28;20853;-62
2022/10/02 08:20:29;;;;;;;5.10;2.17;;;24.00;14.20;;;;;;5043689;28;20490;-62
2022/10/02 08:23:01;;;;;;;4.30;1.57;;;24.00;14.40;;;;;;5042136;28;20489;-62
2022/10/02 08:25:34;;;;;;;3.53;1.00;;;24.00;14.50;;;;;;5041813;28;20454;-62
2022/10/02 08:28:05;;;;;;;4.20;1.10;;;25.40;12.90;;;;;;5037968;28;20536;-61
2022/10/02 08:30:32;;;;;;;5.33;1.57;;;26.90;10.30;;;;;;5039945;28;20496;-62
2022/10/02 08:33:00;;;;;;;6.50;1.50;;;28.30;8.20;;;;;;5043340;28;20466;-62
2022/10/02 08:35:35;;;;;;;4.10;1.00;;;30.60;5.60;;;;;;5045335;28;20462;-60
2022/10/02 08:38:16;;;;;;;3.90;1.03;;;32.10;2.10;;;;;;5046689;28;20454;-62
2022/10/02 08:41:12;;;;;;;4.67;0.90;;;31.80;1.50;;;;;;5038608;28;20573;-62
2022/10/02 08:44:10;;;;;;;4.87;1.10;;;31.70;1.60;;;;;;5039047;28;20458;-62
2022/10/02 08:47:08;;;;;;;4.50;1.37;;;30.90;1.80;;;;;;5043940;28;20457;-62
2022/10/02 08:50:14;;;;;;;5.77;1.07;;;31.40;2.50;;;;;;5036823;28;20478;-62
2022/10/02 08:53:17;;;;;;;6.40;1.40;;;33.00;1.00;;;;;;5044930;28;20469;-62
2022/10/02 08:56:03;;;;;;;6.13;1.87;;;35.10;1.00;;;;;;5043094;28;20462;-62
2022/10/02 08:59:10;;;;;;;4.40;1.10;;;35.40;1.00;;;;;;5038759;28;20540;-61
2022/10/02 09:02:10;;;;;;;4.27;0.97;;;36.60;1.00;;;;;;5041817;28;20493;-62
2022/10/02 09:05:19;;;;;;;4.83;1.20;;;37.60;1.00;;;;;;5035273;28;21234;-62
2022/10/02 09:08:20;;;;;;;6.13;0.80;;;37.40;1.00;;;;;;5045363;28;20464;-61
2022/10/02 09:11:06;;;;;;;3.97;0.93;;;37.00;1.00;;;;;;5034971;28;20455;-62
2022/10/02 09:14:12;;;;;;;4.13;1.07;;;36.80;1.00;;;;;;5038567;28;20458;-61
2022/10/02 09:16:56;;;;;;;3.33;1.00;;;37.70;1.00;;;;;;5014464;28;21606;-61
2022/10/02 09:19:43;;;;;;;3.67;0.80;;;37.80;1.00;;;;;;5035567;28;20477;-61
2022/10/02 09:22:36;;;;;;;5.17;1.03;;;37.50;1.00;;;;;;5036813;28;20467;-62
2022/10/02 09:25:32;;;;;;;8.17;1.23;;;37.10;1.00;;;;;;5039257;28;20966;-62
2022/10/02 09:28:32;;;;;;;3.63;0.90;;;37.30;1.00;;;;;;5039646;28;20489;-62
2022/10/02 09:31:21;;;;;;;5.67;0.97;;;38.20;1.00;;;;;;5036264;28;20480;-62
2022/10/02 09:34:15;;;;;;;4.17;0.80;;;38.60;1.00;;;;;;5036891;28;20466;-62
2022/10/02 09:37:23;;;;;;;3.63;0.60;;;38.60;1.00;;;;;;5033892;28;20467;-62
2022/10/02 09:40:25;;;;;;;3.87;0.60;;;37.80;1.00;;;;;;5035311;28;20518;-62
2022/10/02 09:43:22;;;;;;;2.97;0.70;;;36.90;1.00;;;;;;5036499;28;20472;-63
2022/10/02 09:46:14;;;;;;;3.00;0.50;;;36.40;1.00;;;;;;5035729;28;20458;-66
2022/10/02 09:49:18;;;;;;;3.60;0.80;;;34.60;1.00;;;;;;5036369;28;20478;-67
2022/10/02 09:52:07;;;;;;;3.87;0.83;;;33.60;1.00;;;;;;5029293;28;20470;-66
2022/10/02 09:55:07;;;;;;;5.50;0.80;;;33.70;1.00;;;;;;5040841;28;20458;-67
2022/10/02 09:58:21;;;;;;;3.73;0.90;;;32.60;1.00;;;;;;5041937;28;20531;-67
2022/10/02 10:01:19;;;;;;;4.50;1.07;;;33.40;1.00;;;;;;4961974;28;20493;-67
2022/10/02 10:04:23;;;;;;;3.60;0.73;;;34.50;1.00;;;;;;4957574;28;20466;-67
2022/10/02 10:07:22;;;;;;;3.00;0.73;;;34.30;1.00;;;;;;5038009;28;20460;-67
2022/10/02 10:10:29;;;;;;;4.50;0.70;;;34.60;1.00;;;;;;5034738;28;20515;-66
2022/10/02 10:13:31;;;;;;;3.57;0.90;;;36.10;1.00;;;;;;5039734;28;20911;-66
2022/10/02 10:16:28;;;;;;;5.03;0.70;;;37.30;1.00;;;;;;5044020;28;20453;-66
2022/10/02 10:19:30;;;;;;;3.77;0.90;;;36.00;1.00;;;;;;5044573;28;20478;-66
2022/10/02 10:22:41;;;;;;;3.73;0.60;;;35.30;1.00;;;;;;5049131;28;20485;-67
2022/10/02 10:25:41;;;;;;;3.67;0.63;;;33.70;1.00;;;;;;5037645;28;20487;-64
2022/10/02 10:28:44;;;;;;;3.40;0.80;;;32.10;1.00;;;;;;5012324;28;20458;-64
2022/10/02 10:31:47;;;;;;;3.57;0.60;;;30.50;1.00;;;;;;5043859;28;20461;-66
2022/10/02 10:34:44;;;;;;;3.43;0.70;;;29.00;3.40;;;;;;5042253;28;20512;-63
2022/10/02 10:40:37;;;;;;;3.67;0.73;;;26.90;6.90;;;;;;5037074;28;20492;-68
2022/10/02 10:43:40;;;;;;;3.00;0.60;;;26.00;9.10;;;;;;5042098;28;20479;-62
2022/10/02 10:46:31;;;;;;;3.40;0.70;;;25.60;10.00;;;;;;5035507;28;20467;-62
2022/10/02 10:49:18;;;;;;;4.70;0.80;;;25.20;10.70;;;;;;5041753;28;20473;-63
2022/10/02 10:51:54;;;;;;;3.33;0.70;;;25.10;12.00;;;;;;5037527;28;20982;-62
2022/10/02 10:54:52;;;;;;;3.30;0.70;;;25.10;11.70;;;;;;5042673;28;20457;-61
2022/10/02 10:57:34;;;;;;;3.40;0.60;;;24.80;12.50;;;;;;5044089;28;21147;-62
2022/10/02 11:00:16;;;;;;;3.90;0.90;;;24.40;13.00;;;;;;5042184;28;20489;-60
2022/10/02 11:03:13;;;;;;;4.27;0.70;;;24.10;13.60;;;;;;5035459;28;20466;-61
2022/10/02 11:06:16;;;;;;;3.10;0.60;;;24.10;13.90;;;;;;5038463;28;20549;-62
2022/10/02 11:09:16;;;;;;;6.90;1.20;;;23.90;14.10;;;;;;5040245;28;20485;-61
2022/10/02 11:11:56;;;;;;;3.00;0.50;;;23.60;14.60;;;;;;5037577;28;20470;-62
2022/10/02 11:14:33;;;;;;;4.33;0.63;;;23.40;14.90;;;;;;5043065;28;20469;-64
2022/10/02 11:17:34;;;;;;;6.50;2.93;;;23.20;15.30;;;;;;5040123;28;20839;-62
2022/10/02 11:20:19;;;;;;;4.90;0.70;;;22.90;15.90;;;;;;5041935;28;20484;-64
2022/10/02 11:23:26;;;;;;;3.00;0.70;;;22.70;16.30;;;;;;5023640;28;20461;-62
2022/10/02 11:26:23;;;;;;;3.40;0.70;;;22.60;16.90;;;;;;5038937;28;20474;-62
2022/10/02 11:29:32;;;;;;;3.30;0.70;;;22.60;17.20;;;;;;5037421;28;20489;-62
2022/10/02 11:32:19;;;;;;;3.27;0.77;;;22.60;17.00;;;;;;5037948;28;20492;-62
2022/10/02 11:35:10;;;;;;;3.30;0.80;;;22.40;17.30;;;;;;5043132;28;20505;-62
2022/10/02 11:38:01;;;;;;;3.53;0.60;;;22.30;17.50;;;;;;5039276;28;20470;-61
2022/10/02 11:40:44;;;;;;;3.07;0.50;;;22.10;18.60;;;;;;5044174;28;20486;-62
2022/10/02 11:43:28;;;;;;;3.10;0.60;;;22.00;18.60;;;;;;5047039;28;20462;-62
2022/10/02 11:46:36;;;;;;;3.83;0.70;;;21.90;19.00;;;;;;5046493;28;20466;-62
2022/10/02 11:49:25;;;;;;;3.73;0.90;;;21.90;18.80;;;;;;5029261;28;20994;-62
2022/10/02 11:52:11;;;;;;;4.90;0.90;;;21.90;19.40;;;;;;5040962;28;20476;-62
2022/10/02 11:54:53;;;;;;;4.30;1.10;;;22.00;20.00;;;;;;5037029;28;20465;-62
2022/10/02 11:57:46;;;;;;;4.90;0.50;;;22.20;19.60;;;;;;5043058;28;20540;-62
2022/10/02 12:00:55;;;;;;;3.23;0.60;;;22.30;19.60;;;;;;5042166;28;20478;-62
2022/10/02 12:03:30;;;;;;;3.23;0.80;;;22.40;19.50;;;;;;5044536;28;21013;-62
2022/10/02 12:06:03;;;;;;;3.07;0.70;;;22.40;19.00;;;;;;5045932;28;20457;-62
2022/10/02 12:08:45;;;;;;;4.00;0.90;;;22.40;19.20;;;;;;5038654;28;20455;-61
2022/10/02 12:11:20;;;;;;;3.00;0.57;;;22.50;19.60;;;;;;5044312;28;20973;-62
2022/10/02 12:14:00;;;;;;;3.10;0.67;;;22.60;19.60;;;;;;5039939;28;20450;-62
2022/10/02 12:16:37;;;;;;;3.40;0.70;;;22.60;19.30;;;;;;5045857;28;20462;-61
2022/10/02 12:19:31;;;;;;;3.00;0.50;;;22.50;19.50;;;;;;5038840;28;20481;-62
2022/10/02 12:28:03;;;;;;;6.40;0.60;;;21.90;21.20;;;;;;5046535;28;20510;-63
2022/10/02 12:30:38;;;;;;;3.97;0.80;;;21.70;21.70;;;;;;5040722;28;20496;-62
2022/10/02 12:33:17;;;;;;;3.83;0.90;;;21.50;22.10;;;;;;5036628;28;20480;-62
2022/10/02 12:36:33;;;;;;;3.20;0.60;;;21.30;23.00;;;;;;5044741;28;20461;-62
2022/10/02 12:39:11;;;;;;;4.83;0.60;;;21.10;23.80;;;;;;4997001;28;20481;-63
2022/10/02 12:42:01;;;;;;;3.77;0.60;;;20.90;24.30;;;;;;5040560;28;20482;-62
2022/10/02 12:44:46;;;;;;;6.47;2.97;;;20.80;24.70;;;;;;5036497;28;20454;-62
2022/10/02 12:47:27;;;;;;;3.33;0.70;;;20.60;25.50;;;;;;5041036;28;20538;-62
2022/10/02 12:50:08;;;;;;;5.80;0.73;;;20.50;26.20;;;;;;5032897;28;20562;-62
2022/10/02 12:53:04;;;;;;;3.63;0.80;;;20.40;26.60;;;;;;5046432;28;20994;-63
2022/10/02 12:56:01;;;;;;;3.30;0.80;;;20.20;27.00;;;;;;5039951;28;20463;-62
2022/10/02 12:58:45;;;;;;;4.13;0.87;;;20.20;27.70;;;;;;5042895;28;20470;-62
2022/10/02 13:01:43;;;;;;;4.37;0.93;;;20.20;27.90;;;;;;5038945;28;21120;-62
2022/10/02 13:04:47;;;;;;;3.20;0.67;;;20.20;28.20;;;;;;5042614;28;20458;-62
2022/10/02 13:08:08;;;;;;;3.50;0.90;;;20.20;27.90;;;;;;5038270;28;20462;-62
2022/10/02 13:10:40;;;;;;;3.90;0.60;;;20.30;27.50;;;;;;5044882;28;20474;-63
2022/10/02 13:13:24;;;;;;;2.97;0.50;;;20.20;27.20;;;;;;5042299;28;20450;-63
2022/10/02 13:15:59;;;;;;;13.13;6.57;;;20.10;27.10;;;;;;5033464;28;20505;-62
2022/10/02 13:18:54;;;;;;;3.90;0.77;;;20.10;27.20;;;;;;5045076;28;20485;-62
2022/10/02 13:21:25;;;;;;;4.43;0.50;;;20.10;27.10;;;;;;5048117;28;20513;-62
2022/10/02 13:24:05;;;;;;;3.40;0.73;;;20.00;27.50;;;;;;5046902;28;20515;-62
2022/10/02 13:26:41;;;;;;;3.47;0.60;;;19.90;27.90;;;;;;5037584;28;20892;-62
2022/10/02 13:29:22;;;;;;;3.67;0.60;;;19.80;27.90;;;;;;5043525;28;20485;-62
2022/10/02 13:31:59;;;;;;;4.07;0.87;;;19.60;28.80;;;;;;5040389;28;20470;-62
2022/10/02 13:34:43;;;;;;;4.00;0.80;;;19.50;30.60;;;;;;5043567;28;20458;-62
2022/10/02 13:37:17;;;;;;;3.20;0.50;;;19.40;31.30;;;;;;5041867;28;20458;-62
2022/10/02 13:40:01;;;;;;;3.90;0.80;;;19.30;31.80;;;;;;5037536;28;20516;-62
2022/10/02 13:42:38;;;;;;;3.50;0.70;;;19.20;32.50;;;;;;5038974;28;20483;-62
2022/10/02 13:45:16;;;;;;;3.37;0.60;;;19.10;33.20;;;;;;5042026;28;20457;-62
2022/10/02 13:47:48;;;;;;;3.37;0.63;;;19.00;33.40;;;;;;5037531;28;20458;-62
2022/10/02 13:50:33;;;;;;;4.13;0.83;;;18.90;33.90;;;;;;5037090;28;20500;-62
2022/10/02 13:53:19;;;;;;;3.80;0.60;;;18.80;34.50;;;;;;5042816;28;20451;-62
2022/10/02 13:55:52;;;;;;;6.87;2.10;;;18.70;34.70;;;;;;5039869;28;20461;-62
2022/10/02 13:58:41;;;;;;;3.90;0.60;;;18.70;35.30;;;;;;5037868;28;20860;-62
2022/10/02 14:01:30;;;;;;;3.60;1.00;;;18.60;35.70;;;;;;5043915;28;20475;-62
2022/10/02 14:04:22;;;;;;;5.20;1.70;;;18.40;36.20;;;;;;5033703;28;20461;-62
2022/10/02 14:06:55;;;;;;;6.00;1.73;;;18.30;35.60;;;;;;5034865;28;20462;-61
2022/10/02 14:09:33;;;;;;;4.07;1.33;;;18.20;35.00;;;;;;5037255;28;20490;-62